Time;durP1;ratioP1;P1;durP2;ratioP2;P2;SDS_P1;SDS_P2;PMS_P1;PMS_P2;Temp;Humidity;BMP_temperature;BMP_pressure;BME280_temperature;BME280_humidity;BME280_pressure;Samples;Min_cycle;Max_cycle;Signal;HPM_P1;HPM_P2
2022/10/02 00:02:22;;;;;;;;;;;;;;;13.20;100.00;99698.63;10102691;29;19932;-71
2022/10/02 00:07:28;;;;;;;;;;;;;;;13.08;100.00;99694.63;10102354;29;19963;-68
2022/10/02 00:12:32;;;;;;;;;;;;;;;13.17;100.00;99696.97;10101980;29;20257;-70
2022/10/02 00:17:40;;;;;;;;;;;;;;;13.16;100.00;99702.22;10101988;29;19927;-70
2022/10/02 00:22:47;;;;;;;;;;;;;;;13.10;100.00;99705.88;10102067;29;19991;-70
2022/10/02 00:27:56;;;;;;;;;;;;;;;13.09;100.00;99709.38;10101690;29;20015;-70
2022/10/02 00:33:06;;;;;;;;;;;;;;;12.95;100.00;99710.66;10101630;29;19928;-71
2022/10/02 00:38:15;;;;;;;;;;;;;;;12.95;100.00;99716.72;10100995;29;19928;-75
2022/10/02 00:43:23;;;;;;;;;;;;;;;12.93;100.00;99721.13;10100811;29;19934;-75
2022/10/02 00:48:37;;;;;;;;;;;;;;;12.92;100.00;99715.97;10100865;29;20022;-71
2022/10/02 00:53:45;;;;;;;;;;;;;;;12.92;100.00;99715.97;10100697;29;19935;-74
2022/10/02 00:59:03;;;;;;;;;;;;;;;12.85;100.00;99725.72;10100523;29;19927;-69
2022/10/02 01:04:09;;;;;;;;;;;;;;;12.86;100.00;99731.78;10098744;29;19938;-73
2022/10/02 01:09:12;;;;;;;;;;;;;;;12.98;100.00;99719.22;10100506;29;19928;-76
2022/10/02 01:14:15;;;;;;;;;;;;;;;13.02;100.00;99717.41;10099736;29;19936;-70
2022/10/02 01:19:25;;;;;;;;;;;;;;;13.04;100.00;99721.69;10099419;29;19931;-75
2022/10/02 01:24:32;;;;;;;;;;;;;;;12.97;100.00;99734.91;10099937;29;19928;-70
2022/10/02 01:29:37;;;;;;;;;;;;;;;13.06;100.00;99725.13;10100313;29;20015;-72
2022/10/02 01:34:40;;;;;;;;;;;;;;;13.03;100.00;99727.78;10099817;29;20318;-70
2022/10/02 01:39:43;;;;;;;;;;;;;;;13.08;100.00;99732.88;10100059;29;19928;-75
2022/10/02 01:44:48;;;;;;;;;;;;;;;13.07;100.00;99732.03;10099787;29;20014;-71
2022/10/02 01:50:02;;;;;;;;;;;;;;;13.15;100.00;99742.22;10099403;29;19935;-73
2022/10/02 01:55:26;;;;;;;;;;;;;;;13.08;100.00;99754.56;10099803;29;19970;-72
2022/10/02 02:00:38;;;;;;;;;;;;;;;13.03;100.00;99759.06;10095765;29;20269;-73
2022/10/02 02:05:44;;;;;;;;;;;;;;;13.01;100.00;99762.59;10099710;29;19927;-71
2022/10/02 02:10:53;;;;;;;;;;;;;;;12.88;100.00;99772.50;10099564;29;19943;-74
2022/10/02 02:16:01;;;;;;;;;;;;;;;13.00;100.00;99772.16;10099275;29;19938;-72
2022/10/02 02:21:06;;;;;;;;;;;;;;;13.00;100.00;99772.16;10103558;29;19928;-71
2022/10/02 02:26:11;;;;;;;;;;;;;;;13.08;100.00;99782.38;10105910;29;19938;-73
2022/10/02 02:31:18;;;;;;;;;;;;;;;12.97;100.00;99782.66;10105618;29;20364;-73
2022/10/02 02:36:24;;;;;;;;;;;;;;;12.96;100.00;99778.34;10105571;29;20289;-71
2022/10/02 02:41:28;;;;;;;;;;;;;;;13.02;100.00;99786.00;10105419;29;19932;-74
2022/10/02 02:47:02;;;;;;;;;;;;;;;13.09;100.00;99787.53;10105562;29;19984;-71
2022/10/02 02:51:59;;;;;;;;;;;;;;;13.04;100.00;99783.38;10104658;29;20346;-76
2022/10/02 02:57:03;;;;;;;;;;;;;;;13.03;100.00;99789.47;10105320;29;19938;-72
2022/10/02 03:02:08;;;;;;;;;;;;;;;13.03;100.00;99789.47;10104889;29;19927;-73
2022/10/02 03:07:14;;;;;;;;;;;;;;;13.06;100.00;99782.44;10104553;29;19936;-73
2022/10/02 03:12:22;;;;;;;;;;;;;;;12.98;100.00;99780.91;10103989;29;19992;-75
2022/10/02 03:17:34;;;;;;;;;;;;;;;13.00;100.00;99779.09;10104093;29;20343;-73
2022/10/02 03:22:42;;;;;;;;;;;;;;;12.92;100.00;99794.97;10103935;29;19983;-72
2022/10/02 03:27:48;;;;;;;;;;;;;;;12.98;100.00;99792.16;10104260;29;20036;-72
2022/10/02 03:32:55;;;;;;;;;;;;;;;13.04;100.00;99796.38;10102389;29;19938;-71
2022/10/02 03:38:00;;;;;;;;;;;;;;;13.07;100.00;99794.53;10103181;29;19943;-71
2022/10/02 03:43:03;;;;;;;;;;;;;;;13.08;100.00;99795.41;10103317;29;19927;-71
2022/10/02 03:48:07;;;;;;;;;;;;;;;13.03;100.00;99800.72;10102954;29;20018;-71
2022/10/02 03:53:12;;;;;;;;;;;;;;;13.06;100.00;99802.41;10103124;29;19928;-73
2022/10/02 03:58:17;;;;;;;;;;;;;;;12.93;100.00;99801.88;10102299;29;19934;-71
2022/10/02 04:03:25;;;;;;;;;;;;;;;12.88;100.00;99798.53;10102344;29;19935;-71
2022/10/02 04:08:31;;;;;;;;;;;;;;;12.93;100.00;99801.88;10102260;29;19931;-76
2022/10/02 04:13:37;;;;;;;;;;;;;;;12.93;100.00;99804.47;10101754;29;20227;-74
2022/10/02 04:18:47;;;;;;;;;;;;;;;12.93;100.00;99807.09;10101910;29;19954;-74
2022/10/02 04:23:52;;;;;;;;;;;;;;;12.96;100.00;99806.97;10102013;29;19928;-74
2022/10/02 04:28:59;;;;;;;;;;;;;;;12.92;100.00;99810.59;10101615;29;19982;-74
2022/10/02 04:34:07;;;;;;;;;;;;;;;13.05;100.00;99817.19;9824137;29;10000270;-73
2022/10/02 04:39:18;;;;;;;;;;;;;;;13.00;100.00;99813.81;10081403;29;19928;-72
2022/10/02 04:44:29;;;;;;;;;;;;;;;12.94;100.00;99824.44;10097715;29;20022;-71
2022/10/02 04:49:42;;;;;;;;;;;;;;;13.03;100.00;99818.13;10097998;29;19938;-67
2022/10/02 04:54:56;;;;;;;;;;;;;;;13.04;100.00;99825.91;10097493;29;19938;-63
2022/10/02 05:00:04;;;;;;;;;;;;;;;13.05;100.00;99826.75;10096792;29;19932;-64
2022/10/02 05:05:19;;;;;;;;;;;;;;;13.05;100.00;99826.75;10058843;29;19928;-65
2022/10/02 05:10:28;;;;;;;;;;;;;;;13.04;100.00;99838.94;10058870;29;19939;-66
2022/10/02 05:15:47;;;;;;;;;;;;;;;13.01;100.00;99832.91;10058823;29;19928;-75
2022/10/02 05:21:03;;;;;;;;;;;;;;;13.00;100.00;99837.28;10069563;29;19946;-73
2022/10/02 05:26:16;;;;;;;;;;;;;;;13.10;100.00;99845.72;10097229;29;20045;-74
2022/10/02 05:31:25;;;;;;;;;;;;;;;13.07;100.00;99845.78;10096930;29;20031;-74
2022/10/02 05:36:41;;;;;;;;;;;;;;;13.12;100.00;99844.78;10096592;29;19963;-74
2022/10/02 05:41:48;;;;;;;;;;;;;;;13.11;100.00;99863.06;10096658;29;20268;-73
2022/10/02 05:46:55;;;;;;;;;;;;;;;13.11;100.00;99857.84;10096888;29;19938;-73
2022/10/02 05:52:02;;;;;;;;;;;;;;;13.21;100.00;99859.28;10096883;29;20323;-75
2022/10/02 05:57:08;;;;;;;;;;;;;;;13.15;100.00;99865.53;10101979;29;20429;-73
2022/10/02 06:02:16;;;;;;;;;;;;;;;13.07;100.00;99870.09;10105501;29;20015;-75
2022/10/02 06:07:20;;;;;;;;;;;;;;;13.13;100.00;99879.50;10106550;29;20342;-74
2022/10/02 06:12:29;;;;;;;;;;;;;;;13.11;100.00;99871.75;10106637;29;20023;-74
2022/10/02 06:17:36;;;;;;;;;;;;;;;13.13;100.00;99876.91;10106329;29;19974;-74
2022/10/02 06:22:43;;;;;;;;;;;;;;;13.17;100.00;99875.91;10106207;29;20330;-73
2022/10/02 06:27:48;;;;;;;;;;;;;;;13.22;100.00;99881.88;10106459;29;19928;-76
2022/10/02 06:32:55;;;;;;;;;;;;;;;13.13;100.00;99888.16;10105303;29;20365;-70
2022/10/02 06:38:05;;;;;;;;;;;;;;;13.03;100.00;99896.28;10105644;29;19959;-74
2022/10/02 06:43:14;;;;;;;;;;;;;;;13.12;100.00;99890.81;10105303;29;20380;-75
2022/10/02 06:48:24;;;;;;;;;;;;;;;13.14;100.00;99895.09;10105151;29;19954;-73
2022/10/02 06:53:38;;;;;;;;;;;;;;;13.16;100.00;99895.03;10104797;29;20269;-72
2022/10/02 06:58:47;;;;;;;;;;;;;;;13.29;100.00;99899.88;10104734;29;19957;-74
2022/10/02 07:04:05;;;;;;;;;;;;;;;13.27;100.00;99914.69;10104314;29;19931;-75
2022/10/02 07:09:32;;;;;;;;;;;;;;;13.30;100.00;99912.03;9754724;29;10000347;-74
2022/10/02 07:14:46;;;;;;;;;;;;;;;13.41;100.00;99920.38;10071230;29;19934;-76
2022/10/02 07:20:15;;;;;;;;;;;;;;;13.32;100.00;99925.00;10101153;29;19942;-75
2022/10/02 07:25:25;;;;;;;;;;;;;;;13.38;100.00;99930.88;10083679;29;19950;-72
2022/10/02 07:30:33;;;;;;;;;;;;;;;13.41;100.00;99936.00;10062329;29;19928;-74
2022/10/02 07:35:44;;;;;;;;;;;;;;;13.43;100.00;99930.75;10065827;29;20070;-73
2022/10/02 07:40:54;;;;;;;;;;;;;;;13.43;100.00;99942.03;10102760;29;19928;-74
2022/10/02 07:46:08;;;;;;;;;;;;;;;13.60;100.00;99949.38;10099973;29;20023;-72
2022/10/02 07:56:42;;;;;;;;;;;;;;;13.75;100.00;99941.94;10063701;29;19928;-72
2022/10/02 08:01:49;;;;;;;;;;;;;;;13.68;100.00;99948.25;10099856;29;19963;-72
2022/10/02 08:06:56;;;;;;;;;;;;;;;13.68;100.00;99948.25;10099607;29;19935;-75
2022/10/02 08:12:05;;;;;;;;;;;;;;;13.77;100.00;99944.53;10098784;29;20019;-76
2022/10/02 08:17:14;;;;;;;;;;;;;;;13.79;100.00;99951.41;10098298;29;19974;-76
2022/10/02 08:22:22;;;;;;;;;;;;;;;13.84;100.00;99964.31;10098463;29;19928;-74
2022/10/02 08:27:29;;;;;;;;;;;;;;;13.84;100.00;99956.47;10098523;29;19928;-76
2022/10/02 08:32:35;;;;;;;;;;;;;;;13.71;100.00;99956.00;10098503;29;20337;-74
2022/10/02 08:37:44;;;;;;;;;;;;;;;13.72;100.00;99969.88;10097996;29;19994;-72
2022/10/02 08:43:05;;;;;;;;;;;;;;;13.83;100.00;99965.22;10097715;29;19960;-73
2022/10/02 08:48:29;;;;;;;;;;;;;;;13.86;100.00;99960.75;10097111;29;19958;-64
2022/10/02 08:53:50;;;;;;;;;;;;;;;14.01;100.00;99963.81;10097049;29;19961;-78
2022/10/02 08:59:07;;;;;;;;;;;;;;;14.09;100.00;99961.81;10098307;29;20373;-74
2022/10/02 09:04:37;;;;;;;;;;;;;;;14.19;100.00;99963.22;10097324;29;20014;-74
2022/10/02 09:09:56;;;;;;;;;;;;;;;14.43;100.00;99957.28;10088260;29;19928;-77
2022/10/02 09:15:09;;;;;;;;;;;;;;;14.42;100.00;99966.03;10085922;29;19928;-74
2022/10/02 09:20:29;;;;;;;;;;;;;;;14.64;100.00;99959.19;10096941;29;19936;-76
2022/10/02 09:25:36;;;;;;;;;;;;;;;14.88;100.00;99955.75;10097263;29;19978;-74
2022/10/02 09:30:50;;;;;;;;;;;;;;;14.87;100.00;99952.31;10102707;29;19938;-73
2022/10/02 09:36:02;;;;;;;;;;;;;;;14.74;99.62;99953.63;10104716;29;19928;-77
2022/10/02 09:41:17;;;;;;;;;;;;;;;14.58;99.43;99956.81;10104508;29;20409;-74
2022/10/02 09:46:37;;;;;;;;;;;;;;;14.83;99.65;99960.28;10104105;29;20763;-66
2022/10/02 09:51:58;;;;;;;;;;;;;;;14.98;98.05;99952.78;10104009;29;20023;-76
2022/10/02 09:57:19;;;;;;;;;;;;;;;15.52;95.07;99939.53;10104634;29;19928;-73
2022/10/02 10:02:39;;;;;;;;;;;;;;;15.87;91.46;99931.25;10103538;29;19944;-73
2022/10/02 10:08:03;;;;;;;;;;;;;;;16.12;91.02;99928.50;10103721;29;20392;-73
2022/10/02 10:13:21;;;;;;;;;;;;;;;16.01;89.20;99926.28;10076865;29;19934;-75
2022/10/02 10:18:47;;;;;;;;;;;;;;;16.20;90.13;99916.81;10103200;29;19928;-72
2022/10/02 10:24:06;;;;;;;;;;;;;;;15.91;88.96;99911.88;10101976;29;19938;-74
2022/10/02 10:29:23;;;;;;;;;;;;;;;15.77;87.75;99911.53;10093683;29;20376;-74
2022/10/02 10:34:36;;;;;;;;;;;;;;;15.83;86.05;99908.69;9766147;29;10000263;-67
2022/10/02 10:39:58;;;;;;;;;;;;;;;15.75;85.67;99902.06;10094127;29;19931;-66
2022/10/02 10:45:22;;;;;;;;;;;;;;;16.23;82.47;99901.88;10102374;29;19932;-72
2022/10/02 10:50:37;;;;;;;;;;;;;;;16.73;79.79;99898.94;10098010;29;20019;-73
2022/10/02 10:55:47;;;;;;;;;;;;;;;17.04;74.59;99888.81;10102099;29;19978;-74
2022/10/02 11:01:06;;;;;;;;;;;;;;;17.68;73.34;99886.81;10101714;29;19938;-78
2022/10/02 11:06:33;;;;;;;;;;;;;;;16.74;75.45;99907.66;10101797;29;20344;-75
2022/10/02 11:11:46;;;;;;;;;;;;;;;15.35;92.86;99933.19;10101498;29;20014;-71
2022/10/02 11:17:09;;;;;;;;;;;;;;;14.63;100.00;99928.78;10101316;29;19935;-73
2022/10/02 11:22:33;;;;;;;;;;;;;;;14.71;100.00;99929.34;10099830;29;20011;-75
2022/10/02 11:27:56;;;;;;;;;;;;;;;16.55;96.12;99920.66;10100140;29;19928;-76
2022/10/02 11:33:15;;;;;;;;;;;;;;;16.47;94.75;99917.50;10100201;29;20580;-72
2022/10/02 11:38:31;;;;;;;;;;;;;;;16.05;97.33;99919.19;10100163;29;20014;-73
2022/10/02 11:44:01;;;;;;;;;;;;;;;15.83;98.92;99918.31;10100798;29;20014;-74
2022/10/02 11:49:25;;;;;;;;;;;;;;;15.62;98.76;99909.50;10057819;29;20358;-73
2022/10/02 11:54:35;;;;;;;;;;;;;;;15.64;97.54;99912.94;10099024;29;20020;-72
2022/10/02 12:00:04;;;;;;;;;;;;;;;15.64;94.65;99907.69;10095357;29;19927;-72
2022/10/02 12:05:25;;;;;;;;;;;;;;;15.45;95.26;99906.69;10098004;29;20018;-69
2022/10/02 12:10:35;;;;;;;;;;;;;;;15.59;94.19;99906.16;10097611;29;19927;-70
2022/10/02 12:15:44;;;;;;;;;;;;;;;15.79;92.32;99919.34;10104900;29;19936;-71
2022/10/02 12:31:49;;;;;;;;;;;;;;;14.90;93.12;99909.53;10097923;29;20046;-71
2022/10/02 12:36:57;;;;;;;;;;;;;;;14.98;92.83;99910.09;10097874;29;19928;-74
2022/10/02 12:42:14;;;;;;;;;;;;;;;15.33;92.35;99908.84;10097960;29;20026;-71
2022/10/02 12:47:29;;;;;;;;;;;;;;;16.16;87.17;99891.69;10097915;29;19939;-72
2022/10/02 12:52:53;;;;;;;;;;;;;;;15.69;90.12;99889.19;10097993;29;19942;-74
2022/10/02 12:58:02;;;;;;;;;;;;;;;15.36;90.93;99891.28;10081125;29;19928;-74
2022/10/02 13:03:27;;;;;;;;;;;;;;;15.16;90.35;99893.78;10096963;29;20305;-73
2022/10/02 13:08:40;;;;;;;;;;;;;;;15.09;89.98;99889.69;10105387;29;19942;-72
2022/10/02 13:13:53;;;;;;;;;;;;;;;15.24;89.39;99894.34;10111025;29;20413;-72
2022/10/02 13:19:04;;;;;;;;;;;;;;;15.45;88.37;99880.53;10105701;29;19935;-72
2022/10/02 13:24:19;;;;;;;;;;;;;;;15.49;88.34;99879.50;10109573;29;20249;-73
2022/10/02 13:29:35;;;;;;;;;;;;;;;15.43;88.96;99876.28;10114760;29;19970;-70
2022/10/02 13:34:45;;;;;;;;;;;;;;;15.45;89.63;99880.53;10110539;29;19935;-71
2022/10/02 13:39:58;;;;;;;;;;;;;;;15.29;90.19;99879.34;10114126;29;20680;-70
2022/10/02 13:45:07;;;;;;;;;;;;;;;15.28;91.27;99882.88;10105663;29;19941;-68
2022/10/02 13:50:28;;;;;;;;;;;;;;;15.19;92.67;99877.13;10114673;29;20021;-71
2022/10/02 13:55:33;;;;;;;;;;;;;;;15.33;92.65;99870.47;10112376;29;20022;-74
2022/10/02 14:00:48;;;;;;;;;;;;;;;15.46;93.16;99884.81;10105788;29;20030;-70
2022/10/02 14:05:54;;;;;;;;;;;;;;;15.55;92.14;99878.44;10096093;29;19934;-71
2022/10/02 14:11:04;;;;;;;;;;;;;;;15.67;91.12;99881.41;10091375;29;20019;-71
2022/10/02 14:16:19;;;;;;;;;;;;;;;15.61;90.15;99870.34;10087204;29;19955;-75
2022/10/02 14:21:26;;;;;;;;;;;;;;;15.46;90.41;99869.13;10079634;29;19932;-72
2022/10/02 14:26:38;;;;;;;;;;;;;;;15.39;89.78;99858.94;10095850;29;20338;-71
2022/10/02 14:31:54;;;;;;;;;;;;;;;15.49;90.53;99862.94;10102556;29;19938;-74
2022/10/02 14:37:17;;;;;;;;;;;;;;;15.64;89.88;99867.59;10102315;29;19939;-73
2022/10/02 14:42:29;;;;;;;;;;;;;;;15.55;88.95;99860.13;10102443;29;19928;-71
2022/10/02 14:47:50;;;;;;;;;;;;;;;15.44;89.22;99857.91;10100386;29;19939;-73
2022/10/02 14:53:02;;;;;;;;;;;;;;;15.26;88.74;99852.47;10101847;29;20060;-75
2022/10/02 14:58:16;;;;;;;;;;;;;;;15.37;88.62;99861.63;10109548;23;20393;31
2022/10/02 15:03:30;;;;;;;;;;;;;;;15.29;87.65;99858.41;9725085;29;10001183;-75
2022/10/02 15:08:35;;;;;;;;;;;;;;;15.24;87.74;99849.06;10062556;29;19928;-72
2022/10/02 15:13:43;;;;;;;;;;;;;;;15.15;86.57;99849.41;10062561;29;20023;-72
2022/10/02 15:18:55;;;;;;;;;;;;;;;15.14;87.63;99847.69;10062006;29;20034;-72
2022/10/02 15:23:58;;;;;;;;;;;;;;;15.10;87.47;99848.72;10062631;29;19936;-73
2022/10/02 15:29:10;;;;;;;;;;;;;;;15.14;87.89;99853.78;10062053;29;19959;-70
2022/10/02 15:34:21;;;;;;;;;;;;;;;15.07;89.01;99857.50;10061759;29;19939;-70
2022/10/02 15:39:36;;;;;;;;;;;;;;;14.96;90.67;99865.75;10061295;29;19928;-72
2022/10/02 15:44:51;;;;;;;;;;;;;;;14.75;91.64;99860.44;10061362;29;19938;-72
2022/10/02 15:50:03;;;;;;;;;;;;;;;14.69;92.19;99866.72;10062414;29;20243;-71
2022/10/02 15:55:12;;;;;;;;;;;;;;;14.71;92.33;99870.13;10061251;29;20018;-72
2022/10/02 16:00:21;;;;;;;;;;;;;;;14.58;92.56;99862.78;10060804;29;20417;-73
2022/10/02 16:05:34;;;;;;;;;;;;;;;14.60;92.96;99867.03;10060672;29;19960;-70
2022/10/02 16:10:41;;;;;;;;;;;;;;;14.52;93.52;99874.28;10060542;29;20015;-72
2022/10/02 16:15:49;;;;;;;;;;;;;;;14.43;93.79;99876.31;10060300;29;20032;-73
2022/10/02 16:20:59;;;;;;;;;;;;;;;14.36;94.34;99872.22;10060209;29;19973;-70
2022/10/02 16:26:10;;;;;;;;;;;;;;;14.33;94.20;99878.41;10059987;29;19928;-71
2022/10/02 16:31:22;;;;;;;;;;;;;;;14.28;94.39;99890.75;10059907;29;19963;-71
2022/10/02 16:36:33;;;;;;;;;;;;;;;14.27;94.40;99872.53;10059710;29;19984;-72
2022/10/02 16:41:41;;;;;;;;;;;;;;;14.27;94.87;99873.38;10059146;29;19939;-72
2022/10/02 16:46:48;;;;;;;;;;;;;;;14.28;94.80;99875.09;10059719;29;19928;-70
2022/10/02 16:51:58;;;;;;;;;;;;;;;14.28;95.13;99875.09;10059447;29;19939;-71
2022/10/02 16:57:04;;;;;;;;;;;;;;;14.33;94.72;99869.72;10057594;29;19928;-70
2022/10/02 17:02:15;;;;;;;;;;;;;;;14.32;94.68;99874.09;10057209;29;19938;-71
2022/10/02 17:07:28;;;;;;;;;;;;;;;14.20;95.06;99861.41;10057408;29;19960;-72
2022/10/02 17:12:34;;;;;;;;;;;;;;;14.15;95.16;99868.50;10056666;29;20372;-72
2022/10/02 17:17:49;;;;;;;;;;;;;;;14.10;96.09;99862.59;10055758;29;20028;-71
2022/10/02 17:22:58;;;;;;;;;;;;;;;14.14;96.25;99872.03;10057074;29;19940;-72
2022/10/02 17:28:03;;;;;;;;;;;;;;;14.13;97.05;99872.09;10056870;29;19974;-72
2022/10/02 17:33:14;;;;;;;;;;;;;;;14.07;97.75;99874.88;10056972;29;19928;-71
2022/10/02 17:38:31;;;;;;;;;;;;;;;14.09;97.76;99873.09;10058056;29;20353;-71
2022/10/02 17:43:38;;;;;;;;;;;;;;;13.92;99.29;99884.06;10058039;29;19932;-71
2022/10/02 17:48:45;;;;;;;;;;;;;;;13.96;99.27;99880.44;10058312;29;20015;-66
2022/10/02 17:59:25;;;;;;;;;;;;;;;13.74;100.00;99869.84;10062877;29;19936;-71
2022/10/02 18:04:33;;;;;;;;;;;;;;;13.81;100.00;99857.44;10066062;29;19928;-75
2022/10/02 18:09:49;;;;;;;;;;;;;;;13.75;100.00;99868.91;10066480;29;19928;-76
2022/10/02 18:15:01;;;;;;;;;;;;;;;13.66;100.00;99864.00;10065722;29;19951;-74
2022/10/02 18:20:10;;;;;;;;;;;;;;;13.53;100.00;99865.25;10063880;29;20350;-65
2022/10/02 18:25:34;;;;;;;;;;;;;;;13.47;100.00;99857.63;10064347;29;19942;-66
2022/10/02 18:30:42;;;;;;;;;;;;;;;13.41;100.00;99869.97;10062899;29;20357;-75
2022/10/02 18:35:51;;;;;;;;;;;;;;;13.45;100.00;99855.97;10062709;29;20015;-75
2022/10/02 18:41:04;;;;;;;;;;;;;;;13.47;100.00;99862.00;10062328;29;20556;-74
2022/10/02 18:46:16;;;;;;;;;;;;;;;13.46;100.00;99858.53;10062473;29;19932;-73
2022/10/02 18:51:32;;;;;;;;;;;;;;;13.50;100.00;99861.88;10062859;29;19928;-72
2022/10/02 18:56:50;;;;;;;;;;;;;;;13.51;100.00;99864.44;10059867;29;19978;-71
2022/10/02 19:02:01;;;;;;;;;;;;;;;13.57;100.00;99858.19;10064061;29;19928;-73
2022/10/02 19:07:09;;;;;;;;;;;;;;;13.50;100.00;99860.16;10066374;29;19935;-72
2022/10/02 19:12:16;;;;;;;;;;;;;;;13.47;100.00;99852.44;10066116;29;19928;-77
2022/10/02 19:17:22;;;;;;;;;;;;;;;13.56;100.00;99851.28;10064987;29;20370;-71
2022/10/02 19:22:27;;;;;;;;;;;;;;;13.54;100.00;99840.91;10071068;29;19928;-76
2022/10/02 19:27:33;;;;;;;;;;;;;;;13.60;100.00;99843.31;10080579;29;20284;-71
2022/10/02 19:32:40;;;;;;;;;;;;;;;13.58;100.00;99852.09;10064998;29;19928;-71
2022/10/02 19:37:44;;;;;;;;;;;;;;;13.49;100.00;99850.63;10064004;29;20019;-76
2022/10/02 19:42:50;;;;;;;;;;;;;;;13.38;100.00;99857.91;10063968;29;20397;-74
2022/10/02 19:47:56;;;;;;;;;;;;;;;13.34;98.01;99865.88;10063633;29;19938;-73
2022/10/02 19:53:02;;;;;;;;;;;;;;;13.21;98.43;99870.56;10062964;29;20429;-70
2022/10/02 19:58:12;;;;;;;;;;;;;;;13.22;100.00;99858.41;10062706;29;19929;-72
2022/10/02 20:03:18;;;;;;;;;;;;;;;13.18;100.00;99848.97;10063656;29;20022;-71
2022/10/02 20:08:22;;;;;;;;;;;;;;;13.04;100.00;99857.16;10064477;29;20023;-68
2022/10/02 20:13:31;;;;;;;;;;;;;;;12.91;100.00;99858.34;10061445;29;19983;-69
2022/10/02 20:18:39;;;;;;;;;;;;;;;12.80;100.00;99863.84;10063084;29;20426;-74
2022/10/02 20:23:46;;;;;;;;;;;;;;;12.63;100.00;99857.41;10063137;29;19928;-76
2022/10/02 20:28:54;;;;;;;;;;;;;;;12.63;100.00;99855.63;10063141;29;19956;-72
2022/10/02 20:34:00;;;;;;;;;;;;;;;12.56;100.00;99853.25;10063036;29;20302;-73
2022/10/02 20:39:05;;;;;;;;;;;;;;;12.57;100.00;99853.22;10062193;29;20293;-72
2022/10/02 20:44:11;;;;;;;;;;;;;;;12.59;100.00;99848.84;10062389;29;20358;-72
2022/10/02 20:49:39;;;;;;;;;;;;;;;12.63;100.00;99847.00;10062887;29;20429;-73
2022/10/02 20:54:43;;;;;;;;;;;;;;;12.72;100.00;99854.53;10062691;29;19963;-73
2022/10/02 21:00:02;;;;;;;;;;;;;;;12.64;100.00;99852.16;10062111;29;20023;-73
2022/10/02 21:05:10;;;;;;;;;;;;;;;12.59;100.00;99855.78;10062447;29;20357;-72
2022/10/02 21:10:26;;;;;;;;;;;;;;;12.60;100.00;99855.72;10023907;29;19928;-73
2022/10/02 21:15:48;;;;;;;;;;;;;;;12.64;100.00;99852.16;10025809;29;20015;-71
2022/10/02 21:21:14;;;;;;;;;;;;;;;12.60;100.00;99854.88;10061260;29;20068;-75
2022/10/02 21:26:44;;;;;;;;;;;;;;;12.65;100.00;99845.19;10066810;29;19928;-70
2022/10/02 21:31:55;;;;;;;;;;;;;;;12.60;100.00;99844.44;10069806;29;20016;-73
2022/10/02 21:37:07;;;;;;;;;;;;;;;12.68;100.00;99842.53;10069455;29;19956;-80
2022/10/02 21:42:30;;;;;;;;;;;;;;;12.67;100.00;99840.78;10069279;29;19939;-75
2022/10/02 21:47:52;;;;;;;;;;;;;;;12.66;100.00;99837.38;10068377;29;20046;-72
2022/10/02 21:53:13;;;;;;;;;;;;;;;12.59;100.00;99846.22;10066818;29;20422;-72
2022/10/02 21:58:35;;;;;;;;;;;;;;;12.63;100.00;99850.44;10065835;29;19928;-76
2022/10/02 22:03:55;;;;;;;;;;;;;;;12.52;100.00;99856.81;10062832;29;19938;-78
2022/10/02 22:09:09;;;;;;;;;;;;;;;12.52;100.00;99849.03;10065880;29;19934;-75
2022/10/02 22:14:13;;;;;;;;;;;;;;;12.43;100.00;99844.91;9730761;29;10000356;-72
2022/10/02 22:19:25;;;;;;;;;;;;;;;12.38;100.00;99836.38;10064963;29;20002;-70
2022/10/02 22:24:35;;;;;;;;;;;;;;;12.46;100.00;99839.63;10064659;29;20031;-71
2022/10/02 22:29:43;;;;;;;;;;;;;;;12.38;100.00;99841.56;10042373;29;20019;-72
2022/10/02 22:34:53;;;;;;;;;;;;;;;12.36;100.00;99832.94;10058689;29;19928;-76
2022/10/02 22:40:02;;;;;;;;;;;;;;;12.35;100.00;99838.19;10063750;29;19936;-71
2022/10/02 22:45:11;;;;;;;;;;;;;;;12.31;100.00;99847.81;10064088;29;20357;-76
2022/10/02 22:50:23;;;;;;;;;;;;;;;12.29;100.00;99853.94;10063985;29;19950;-72
2022/10/02 22:55:28;;;;;;;;;;;;;;;12.35;100.00;99859.00;10063733;29;20376;-73
2022/10/02 23:00:35;;;;;;;;;;;;;;;12.32;100.00;99846.09;10064081;29;19928;-74
2022/10/02 23:05:42;;;;;;;;;;;;;;;12.21;100.00;99848.09;10063481;29;20560;-73
2022/10/02 23:10:46;;;;;;;;;;;;;;;12.13;100.00;99837.88;10063146;29;19939;-71
2022/10/02 23:15:52;;;;;;;;;;;;;;;12.20;100.00;99849.00;10063258;29;20024;-72
2022/10/02 23:21:03;;;;;;;;;;;;;;;12.17;100.00;99865.53;10062815;29;19939;-74
2022/10/02 23:26:10;;;;;;;;;;;;;;;12.14;100.00;99841.31;10062679;29;20418;-74
2022/10/02 23:31:19;;;;;;;;;;;;;;;12.26;100.00;99854.03;10063016;29;20019;-71
2022/10/02 23:36:26;;;;;;;;;;;;;;;12.18;100.00;99842.97;10062611;29;19984;-72
2022/10/02 23:41:45;;;;;;;;;;;;;;;12.14;100.00;99849.13;10062224;29;19928;-72
2022/10/02 23:47:06;;;;;;;;;;;;;;;12.07;100.00;99843.22;10062160;29;20011;-74
2022/10/02 23:52:19;;;;;;;;;;;;;;;12.12;100.00;99843.09;10061816;29;19944;-72
2022/10/02 23:57:49;;;;;;;;;;;;;;;12.16;100.00;99853.41;10061850;29;19939;-73
